sensor_id;sensor_type;location;lat;lon;timestamp;P1;durP1;ratioP1;P2;durP2;ratioP2
58774;SDS011;44545;47.480;19.024;2023-02-07T03:43:34;0.90;;;0.90;;
58774;SDS011;44545;47.480;19.024;2023-02-07T03:46:40;20.10;;;2.55;;
58774;SDS011;44545;47.480;19.024;2023-02-07T03:49:42;0.30;;;0.30;;
58774;SDS011;44545;47.480;19.024;2023-02-07T03:52:45;0.28;;;0.28;;
58774;SDS011;44545;47.480;19.024;2023-02-07T03:55:47;1.12;;;1.12;;
58774;SDS011;44545;47.480;19.024;2023-02-07T03:58:50;1.55;;;1.23;;
58774;SDS011;44545;47.480;19.024;2023-02-07T04:01:52;0.47;;;0.47;;
58774;SDS011;44545;47.480;19.024;2023-02-07T04:04:54;2.45;;;2.25;;
58774;SDS011;44545;47.480;19.024;2023-02-07T04:07:57;9.10;;;2.80;;
58774;SDS011;44545;47.480;19.024;2023-02-07T04:11:00;3.28;;;3.00;;
58774;SDS011;44545;47.480;19.024;2023-02-07T04:14:04;3.28;;;2.97;;
58774;SDS011;44545;47.480;19.024;2023-02-07T04:17:06;9.90;;;4.47;;
58774;SDS011;44545;47.480;19.024;2023-02-07T04:20:08;2.10;;;2.00;;
58774;SDS011;44545;47.480;19.024;2023-02-07T04:23:11;3.25;;;2.70;;
58774;SDS011;44545;47.480;19.024;2023-02-07T04:26:14;5.12;;;3.28;;
58774;SDS011;44545;47.480;19.024;2023-02-07T04:29:17;0.62;;;0.55;;
58774;SDS011;44545;47.480;19.024;2023-02-07T04:32:19;1.05;;;1.05;;
58774;SDS011;44545;47.480;19.024;2023-02-07T04:35:21;2.15;;;2.05;;
58774;SDS011;44545;47.480;19.024;2023-02-07T04:38:23;1.45;;;1.35;;
58774;SDS011;44545;47.480;19.024;2023-02-07T04:41:26;1.50;;;1.42;;
58774;SDS011;44545;47.480;19.024;2023-02-07T04:44:29;2.78;;;2.30;;
58774;SDS011;44545;47.480;19.024;2023-02-07T04:47:32;0.62;;;0.62;;
58774;SDS011;44545;47.480;19.024;2023-02-07T04:50:34;1.50;;;1.40;;
58774;SDS011;44545;47.480;19.024;2023-02-07T04:53:36;2.33;;;2.20;;
58774;SDS011;44545;47.480;19.024;2023-02-07T04:56:38;1.58;;;1.48;;
58774;SDS011;44545;47.480;19.024;2023-02-07T04:59:41;4.70;;;1.58;;
58774;SDS011;44545;47.480;19.024;2023-02-07T05:02:43;2.25;;;2.10;;
58774;SDS011;44545;47.480;19.024;2023-02-07T05:05:46;0.50;;;0.50;;
58774;SDS011;44545;47.480;19.024;2023-02-07T05:08:48;0.32;;;0.32;;
58774;SDS011;44545;47.480;19.024;2023-02-07T05:11:50;5.68;;;3.87;;
58774;SDS011;44545;47.480;19.024;2023-02-07T05:14:52;1.77;;;0.85;;
58774;SDS011;44545;47.480;19.024;2023-02-07T05:17:55;1.65;;;1.25;;
58774;SDS011;44545;47.480;19.024;2023-02-07T05:20:57;1.85;;;1.75;;
58774;SDS011;44545;47.480;19.024;2023-02-07T05:24:00;1.12;;;1.10;;
58774;SDS011;44545;47.480;19.024;2023-02-07T05:27:03;0.90;;;0.90;;
58774;SDS011;44545;47.480;19.024;2023-02-07T05:30:05;0.60;;;0.60;;
58774;SDS011;44545;47.480;19.024;2023-02-07T05:33:09;1.65;;;1.55;;
58774;SDS011;44545;47.480;19.024;2023-02-07T05:36:12;0.30;;;0.30;;
58774;SDS011;44545;47.480;19.024;2023-02-07T05:39:14;6.03;;;2.20;;
58774;SDS011;44545;47.480;19.024;2023-02-07T05:42:17;1.77;;;1.67;;
58774;SDS011;44545;47.480;19.024;2023-02-07T05:45:19;0.98;;;0.98;;
58774;SDS011;44545;47.480;19.024;2023-02-07T05:48:22;0.50;;;0.50;;
58774;SDS011;44545;47.480;19.024;2023-02-07T05:51:24;0.80;;;0.80;;
58774;SDS011;44545;47.480;19.024;2023-02-07T05:54:28;1.87;;;1.77;;
58774;SDS011;44545;47.480;19.024;2023-02-07T05:57:30;0.77;;;0.77;;
58774;SDS011;44545;47.480;19.024;2023-02-07T06:00:33;4.50;;;1.40;;
58774;SDS011;44545;47.480;19.024;2023-02-07T06:03:35;1.62;;;1.37;;
58774;SDS011;44545;47.480;19.024;2023-02-07T06:06:38;3.22;;;1.48;;
58774;SDS011;44545;47.480;19.024;2023-02-07T06:09:40;4.15;;;3.78;;
58774;SDS011;44545;47.480;19.024;2023-02-07T06:12:42;1.33;;;1.20;;
58774;SDS011;44545;47.480;19.024;2023-02-07T06:15:46;1.00;;;1.00;;
58774;SDS011;44545;47.480;19.024;2023-02-07T06:18:49;2.70;;;1.50;;
58774;SDS011;44545;47.480;19.024;2023-02-07T06:21:52;1.85;;;1.75;;
58774;SDS011;44545;47.480;19.024;2023-02-07T06:24:54;1.50;;;1.40;;
58774;SDS011;44545;47.480;19.024;2023-02-07T06:27:56;1.33;;;1.30;;
58774;SDS011;44545;47.480;19.024;2023-02-07T06:30:58;1.50;;;1.40;;
58774;SDS011;44545;47.480;19.024;2023-02-07T06:34:01;1.30;;;1.02;;
58774;SDS011;44545;47.480;19.024;2023-02-07T06:37:03;0.30;;;0.30;;
58774;SDS011;44545;47.480;19.024;2023-02-07T06:40:06;0.57;;;0.57;;
58774;SDS011;44545;47.480;19.024;2023-02-07T06:43:09;7.60;;;2.35;;
58774;SDS011;44545;47.480;19.024;2023-02-07T06:46:12;1.20;;;1.20;;
58774;SDS011;44545;47.480;19.024;2023-02-07T06:49:15;2.03;;;1.67;;
58774;SDS011;44545;47.480;19.024;2023-02-07T06:52:17;3.35;;;1.90;;
58774;SDS011;44545;47.480;19.024;2023-02-07T06:55:20;2.65;;;2.55;;
58774;SDS011;44545;47.480;19.024;2023-02-07T06:58:23;1.42;;;1.33;;
58774;SDS011;44545;47.480;19.024;2023-02-07T07:01:25;2.10;;;2.00;;
58774;SDS011;44545;47.480;19.024;2023-02-07T07:04:28;7.68;;;2.58;;
58774;SDS011;44545;47.480;19.024;2023-02-07T07:07:30;2.33;;;1.52;;
58774;SDS011;44545;47.480;19.024;2023-02-07T07:10:33;0.82;;;0.60;;
58774;SDS011;44545;47.480;19.024;2023-02-07T07:13:35;0.75;;;0.75;;
58774;SDS011;44545;47.480;19.024;2023-02-07T07:16:38;1.08;;;1.05;;
58774;SDS011;44545;47.480;19.024;2023-02-07T07:19:43;1.70;;;1.60;;
58774;SDS011;44545;47.480;19.024;2023-02-07T07:22:46;4.85;;;2.55;;
58774;SDS011;44545;47.480;19.024;2023-02-07T07:25:49;1.45;;;1.35;;
58774;SDS011;44545;47.480;19.024;2023-02-07T07:28:52;6.28;;;3.15;;
58774;SDS011;44545;47.480;19.024;2023-02-07T07:31:58;3.92;;;1.80;;
58774;SDS011;44545;47.480;19.024;2023-02-07T07:35:01;5.20;;;2.55;;
58774;SDS011;44545;47.480;19.024;2023-02-07T07:38:05;0.85;;;0.85;;
58774;SDS011;44545;47.480;19.024;2023-02-07T07:41:08;1.92;;;1.67;;
58774;SDS011;44545;47.480;19.024;2023-02-07T07:44:10;3.35;;;1.75;;
58774;SDS011;44545;47.480;19.024;2023-02-07T07:47:13;5.25;;;2.35;;
58774;SDS011;44545;47.480;19.024;2023-02-07T07:50:15;2.55;;;2.35;;
58774;SDS011;44545;47.480;19.024;2023-02-07T07:53:18;3.00;;;2.72;;
58774;SDS011;44545;47.480;19.024;2023-02-07T07:56:21;2.85;;;2.65;;
58774;SDS011;44545;47.480;19.024;2023-02-07T07:59:23;5.43;;;4.18;;
58774;SDS011;44545;47.480;19.024;2023-02-07T08:02:26;2.03;;;1.77;;
58774;SDS011;44545;47.480;19.024;2023-02-07T08:05:29;3.60;;;3.30;;
58774;SDS011;44545;47.480;19.024;2023-02-07T08:08:31;7.07;;;1.77;;
58774;SDS011;44545;47.480;19.024;2023-02-07T08:11:34;5.95;;;4.93;;
58774;SDS011;44545;47.480;19.024;2023-02-07T08:14:36;2.15;;;2.05;;
58774;SDS011;44545;47.480;19.024;2023-02-07T08:17:39;4.28;;;3.97;;
58774;SDS011;44545;47.480;19.024;2023-02-07T08:20:42;4.80;;;1.58;;
58774;SDS011;44545;47.480;19.024;2023-02-07T08:23:44;4.87;;;4.47;;
58774;SDS011;44545;47.480;19.024;2023-02-07T08:26:46;5.22;;;3.85;;
58774;SDS011;44545;47.480;19.024;2023-02-07T08:29:52;3.60;;;3.17;;
58774;SDS011;44545;47.480;19.024;2023-02-07T08:32:55;3.08;;;2.08;;
58774;SDS011;44545;47.480;19.024;2023-02-07T08:35:57;7.82;;;3.67;;
58774;SDS011;44545;47.480;19.024;2023-02-07T08:39:01;6.72;;;3.90;;
58774;SDS011;44545;47.480;19.024;2023-02-07T08:42:07;4.27;;;3.30;;
58774;SDS011;44545;47.480;19.024;2023-02-07T08:45:10;15.10;;;4.68;;
58774;SDS011;44545;47.480;19.024;2023-02-07T08:48:15;7.60;;;3.85;;
58774;SDS011;44545;47.480;19.024;2023-02-07T08:51:17;2.90;;;2.05;;
58774;SDS011;44545;47.480;19.024;2023-02-07T08:54:20;5.00;;;3.33;;
58774;SDS011;44545;47.480;19.024;2023-02-07T08:57:23;2.53;;;2.35;;
58774;SDS011;44545;47.480;19.024;2023-02-07T09:00:26;2.33;;;2.08;;
58774;SDS011;44545;47.480;19.024;2023-02-07T09:03:29;4.22;;;3.85;;
58774;SDS011;44545;47.480;19.024;2023-02-07T09:06:31;3.28;;;3.00;;
58774;SDS011;44545;47.480;19.024;2023-02-07T09:09:34;6.12;;;5.50;;
58774;SDS011;44545;47.480;19.024;2023-02-07T09:12:36;12.80;;;4.07;;
58774;SDS011;44545;47.480;19.024;2023-02-07T09:15:39;4.87;;;3.97;;
58774;SDS011;44545;47.480;19.024;2023-02-07T09:18:41;5.62;;;4.37;;
58774;SDS011;44545;47.480;19.024;2023-02-07T09:21:43;4.47;;;3.97;;
58774;SDS011;44545;47.480;19.024;2023-02-07T09:24:46;8.20;;;3.83;;
58774;SDS011;44545;47.480;19.024;2023-02-07T09:27:48;6.32;;;4.37;;
58774;SDS011;44545;47.480;19.024;2023-02-07T09:30:51;4.37;;;4.03;;
58774;SDS011;44545;47.480;19.024;2023-02-07T09:33:54;5.32;;;2.87;;
58774;SDS011;44545;47.480;19.024;2023-02-07T09:36:57;7.97;;;3.22;;
58774;SDS011;44545;47.480;19.024;2023-02-07T09:39:59;4.78;;;3.90;;
58774;SDS011;44545;47.480;19.024;2023-02-07T09:46:17;9.32;;;3.83;;
58774;SDS011;44545;47.480;19.024;2023-02-07T09:49:28;7.95;;;4.18;;
58774;SDS011;44545;47.480;19.024;2023-02-07T09:52:41;6.05;;;4.82;;
58774;SDS011;44545;47.480;19.024;2023-02-07T09:55:53;4.97;;;4.28;;
58774;SDS011;44545;47.480;19.024;2023-02-07T10:02:21;10.82;;;4.87;;
58774;SDS011;44545;47.480;19.024;2023-02-07T10:05:44;6.97;;;4.87;;
58774;SDS011;44545;47.480;19.024;2023-02-07T10:08:55;7.50;;;3.78;;
58774;SDS011;44545;47.480;19.024;2023-02-07T10:12:45;6.97;;;5.43;;
58774;SDS011;44545;47.480;19.024;2023-02-07T10:22:06;7.72;;;5.37;;
58774;SDS011;44545;47.480;19.024;2023-02-07T10:32:02;8.15;;;5.50;;
58774;SDS011;44545;47.480;19.024;2023-02-07T10:35:15;12.07;;;4.70;;
58774;SDS011;44545;47.480;19.024;2023-02-07T10:38:32;6.80;;;3.20;;
58774;SDS011;44545;47.480;19.024;2023-02-07T10:41:39;5.18;;;4.70;;
58774;SDS011;44545;47.480;19.024;2023-02-07T10:44:46;7.80;;;5.00;;
58774;SDS011;44545;47.480;19.024;2023-02-07T10:47:48;6.20;;;4.80;;
58774;SDS011;44545;47.480;19.024;2023-02-07T10:50:51;4.60;;;3.58;;
58774;SDS011;44545;47.480;19.024;2023-02-07T10:54:04;8.25;;;4.45;;
58774;SDS011;44545;47.480;19.024;2023-02-07T10:57:10;11.00;;;4.05;;
58774;SDS011;44545;47.480;19.024;2023-02-07T11:00:25;12.40;;;4.75;;
58774;SDS011;44545;47.480;19.024;2023-02-07T11:03:29;4.40;;;3.40;;
58774;SDS011;44545;47.480;19.024;2023-02-07T11:06:32;3.78;;;3.00;;
58774;SDS011;44545;47.480;19.024;2023-02-07T11:09:35;5.20;;;4.18;;
58774;SDS011;44545;47.480;19.024;2023-02-07T11:12:47;4.43;;;4.03;;
58774;SDS011;44545;47.480;19.024;2023-02-07T11:16:09;4.68;;;3.22;;
58774;SDS011;44545;47.480;19.024;2023-02-07T11:19:18;7.03;;;3.60;;
58774;SDS011;44545;47.480;19.024;2023-02-07T11:22:23;13.88;;;6.35;;
58774;SDS011;44545;47.480;19.024;2023-02-07T11:25:30;13.88;;;6.05;;
58774;SDS011;44545;47.480;19.024;2023-02-07T11:28:37;8.60;;;5.37;;
58774;SDS011;44545;47.480;19.024;2023-02-07T11:31:39;8.40;;;3.65;;
58774;SDS011;44545;47.480;19.024;2023-02-07T11:41:25;15.85;;;5.97;;
58774;SDS011;44545;47.480;19.024;2023-02-07T11:44:29;9.00;;;4.85;;
58774;SDS011;44545;47.480;19.024;2023-02-07T11:47:32;10.65;;;5.22;;
58774;SDS011;44545;47.480;19.024;2023-02-07T11:50:36;10.43;;;5.22;;
58774;SDS011;44545;47.480;19.024;2023-02-07T11:53:44;7.93;;;4.93;;
58774;SDS011;44545;47.480;19.024;2023-02-07T11:56:49;10.20;;;5.05;;
58774;SDS011;44545;47.480;19.024;2023-02-07T12:00:04;9.48;;;5.75;;
58774;SDS011;44545;47.480;19.024;2023-02-07T12:03:23;11.45;;;6.22;;
58774;SDS011;44545;47.480;19.024;2023-02-07T12:06:34;11.35;;;6.10;;
58774;SDS011;44545;47.480;19.024;2023-02-07T12:09:44;9.35;;;4.95;;
58774;SDS011;44545;47.480;19.024;2023-02-07T12:13:10;8.63;;;5.65;;
58774;SDS011;44545;47.480;19.024;2023-02-07T12:19:28;12.90;;;6.30;;
58774;SDS011;44545;47.480;19.024;2023-02-07T12:22:37;11.07;;;5.60;;
58774;SDS011;44545;47.480;19.024;2023-02-07T12:26:05;9.35;;;6.55;;
58774;SDS011;44545;47.480;19.024;2023-02-07T12:32:56;7.20;;;5.40;;
58774;SDS011;44545;47.480;19.024;2023-02-07T12:36:18;7.13;;;2.50;;
58774;SDS011;44545;47.480;19.024;2023-02-07T12:42:48;10.48;;;6.53;;
58774;SDS011;44545;47.480;19.024;2023-02-07T12:52:42;8.13;;;3.35;;
58774;SDS011;44545;47.480;19.024;2023-02-07T12:59:29;5.45;;;2.83;;
58774;SDS011;44545;47.480;19.024;2023-02-07T13:24:13;3.90;;;2.20;;
58774;SDS011;44545;47.480;19.024;2023-02-07T13:27:18;2.60;;;2.27;;
58774;SDS011;44545;47.480;19.024;2023-02-07T13:30:23;7.93;;;2.72;;
58774;SDS011;44545;47.480;19.024;2023-02-07T13:33:36;2.13;;;2.03;;
58774;SDS011;44545;47.480;19.024;2023-02-07T13:36:44;2.22;;;1.70;;
58774;SDS011;44545;47.480;19.024;2023-02-07T13:56:36;4.35;;;2.83;;
58774;SDS011;44545;47.480;19.024;2023-02-07T14:03:32;19.40;;;4.70;;
58774;SDS011;44545;47.480;19.024;2023-02-07T14:06:36;8.80;;;4.87;;
58774;SDS011;44545;47.480;19.024;2023-02-07T14:09:44;4.35;;;3.75;;
58774;SDS011;44545;47.480;19.024;2023-02-07T14:12:49;3.33;;;2.17;;
58774;SDS011;44545;47.480;19.024;2023-02-07T14:16:05;4.60;;;2.62;;
58774;SDS011;44545;47.480;19.024;2023-02-07T14:19:11;7.37;;;1.83;;
58774;SDS011;44545;47.480;19.024;2023-02-07T14:31:32;6.95;;;3.83;;
58774;SDS011;44545;47.480;19.024;2023-02-07T14:34:56;2.60;;;1.85;;
58774;SDS011;44545;47.480;19.024;2023-02-07T14:38:37;1.52;;;1.42;;
58774;SDS011;44545;47.480;19.024;2023-02-07T14:41:43;7.62;;;5.22;;
58774;SDS011;44545;47.480;19.024;2023-02-07T14:44:47;4.00;;;2.95;;
58774;SDS011;44545;47.480;19.024;2023-02-07T14:47:51;2.03;;;1.65;;
58774;SDS011;44545;47.480;19.024;2023-02-07T14:50:54;5.18;;;3.28;;
58774;SDS011;44545;47.480;19.024;2023-02-07T14:54:01;2.05;;;1.90;;
58774;SDS011;44545;47.480;19.024;2023-02-07T15:00:47;1.85;;;1.70;;
58774;SDS011;44545;47.480;19.024;2023-02-07T15:04:04;5.75;;;2.35;;
58774;SDS011;44545;47.480;19.024;2023-02-07T15:07:13;2.00;;;1.90;;
58774;SDS011;44545;47.480;19.024;2023-02-07T15:10:22;1.27;;;1.17;;
58774;SDS011;44545;47.480;19.024;2023-02-07T15:13:38;7.37;;;1.85;;
58774;SDS011;44545;47.480;19.024;2023-02-07T15:16:44;3.50;;;2.95;;
58774;SDS011;44545;47.480;19.024;2023-02-07T15:19:46;5.32;;;2.17;;
58774;SDS011;44545;47.480;19.024;2023-02-07T15:22:50;1.60;;;1.50;;
58774;SDS011;44545;47.480;19.024;2023-02-07T15:25:55;5.65;;;2.65;;
58774;SDS011;44545;47.480;19.024;2023-02-07T15:29:00;2.28;;;2.08;;
58774;SDS011;44545;47.480;19.024;2023-02-07T15:35:35;2.83;;;1.75;;
58774;SDS011;44545;47.480;19.024;2023-02-07T15:38:40;9.43;;;4.20;;
58774;SDS011;44545;47.480;19.024;2023-02-07T15:41:43;5.10;;;2.67;;
58774;SDS011;44545;47.480;19.024;2023-02-07T15:44:51;3.05;;;2.15;;
58774;SDS011;44545;47.480;19.024;2023-02-07T15:47:56;1.25;;;1.15;;
58774;SDS011;44545;47.480;19.024;2023-02-07T15:51:00;3.97;;;3.12;;
58774;SDS011;44545;47.480;19.024;2023-02-07T15:54:05;13.17;;;3.13;;
58774;SDS011;44545;47.480;19.024;2023-02-07T15:57:10;6.68;;;3.12;;
58774;SDS011;44545;47.480;19.024;2023-02-07T16:00:24;1.83;;;1.60;;
58774;SDS011;44545;47.480;19.024;2023-02-07T16:03:33;2.22;;;2.00;;
58774;SDS011;44545;47.480;19.024;2023-02-07T16:06:37;2.92;;;2.62;;
58774;SDS011;44545;47.480;19.024;2023-02-07T16:09:56;3.33;;;2.75;;
58774;SDS011;44545;47.480;19.024;2023-02-07T16:13:20;1.50;;;0.88;;
58774;SDS011;44545;47.480;19.024;2023-02-07T16:16:24;2.80;;;2.50;;
58774;SDS011;44545;47.480;19.024;2023-02-07T16:19:30;1.60;;;1.50;;
58774;SDS011;44545;47.480;19.024;2023-02-07T16:22:33;3.22;;;2.30;;
58774;SDS011;44545;47.480;19.024;2023-02-07T16:25:37;5.62;;;4.75;;
58774;SDS011;44545;47.480;19.024;2023-02-07T16:28:39;4.43;;;3.42;;
58774;SDS011;44545;47.480;19.024;2023-02-07T16:31:42;1.40;;;1.30;;
58774;SDS011;44545;47.480;19.024;2023-02-07T16:34:45;5.30;;;2.92;;
58774;SDS011;44545;47.480;19.024;2023-02-07T16:38:00;12.20;;;5.47;;
58774;SDS011;44545;47.480;19.024;2023-02-07T16:41:03;2.95;;;2.25;;
58774;SDS011;44545;47.480;19.024;2023-02-07T16:44:06;4.97;;;3.62;;
